Time;durP1;ratioP1;P1;durP2;ratioP2;P2;SDS_P1;SDS_P2;PMS_P1;PMS_P2;Temp;Humidity;BMP_temperature;BMP_pressure;BME280_temperature;BME280_humidity;BME280_pressure;Samples;Min_cycle;Max_cycle;Signal;HPM_P1;HPM_P2
2022/04/10 00:01:29;;;;;;;2.13;1.80;;;4.60;99.90;;;;;;5073702;28;20600;-65
2022/04/10 00:03:56;;;;;;;2.60;2.00;;;4.60;99.90;;;;;;5075852;28;20217;-64
2022/04/10 00:06:23;;;;;;;1.90;1.70;;;4.60;99.90;;;;;;5075264;28;20264;-63
2022/04/10 00:08:48;;;;;;;5.70;1.93;;;4.60;99.90;;;;;;5074677;28;20161;-64
2022/04/10 00:11:14;;;;;;;3.50;2.20;;;4.60;99.90;;;;;;5073751;28;20315;-64
2022/04/10 00:13:40;;;;;;;3.27;1.93;;;4.60;99.90;;;;;;5074369;28;20172;-65
2022/04/10 00:16:07;;;;;;;1.70;1.60;;;4.60;99.90;;;;;;5072655;28;20174;-64
2022/04/10 00:18:34;;;;;;;2.47;1.70;;;4.60;99.90;;;;;;5074349;28;20199;-64
2022/04/10 00:21:00;;;;;;;3.90;2.10;;;4.50;99.90;;;;;;5074436;28;20522;-64
2022/04/10 00:23:26;;;;;;;2.87;1.77;;;4.60;99.90;;;;;;5073951;28;20164;-63
2022/04/10 00:25:51;;;;;;;2.70;1.80;;;4.50;99.90;;;;;;5074367;28;20163;-64
2022/04/10 00:28:17;;;;;;;2.87;1.60;;;4.60;99.90;;;;;;5074182;28;20164;-65
2022/04/10 00:30:43;;;;;;;2.07;1.93;;;4.60;99.90;;;;;;5072834;28;20171;-64
2022/04/10 00:33:08;;;;;;;2.37;1.97;;;4.50;99.90;;;;;;5074228;28;20175;-64
2022/04/10 00:35:34;;;;;;;1.87;1.70;;;4.50;99.90;;;;;;5073924;28;20160;-65
2022/04/10 00:38:00;;;;;;;4.27;1.60;;;4.50;99.90;;;;;;5056196;28;20635;-65
2022/04/10 00:40:25;;;;;;;2.20;1.57;;;4.60;99.90;;;;;;5054781;28;20667;-64
2022/04/10 00:42:51;;;;;;;1.93;1.40;;;4.70;99.90;;;;;;5056692;28;20164;-63
2022/04/10 00:45:18;;;;;;;2.70;1.50;;;4.50;99.90;;;;;;5057628;28;20173;-65
2022/04/10 00:47:45;;;;;;;3.80;1.63;;;4.60;99.90;;;;;;5037784;28;20497;-65
2022/04/10 00:50:12;;;;;;;1.63;1.50;;;4.60;99.90;;;;;;5055008;28;20591;-63
2022/04/10 00:52:40;;;;;;;2.37;1.60;;;4.60;99.90;;;;;;5053950;28;20574;-64
2022/04/10 00:55:07;;;;;;;2.67;1.50;;;4.60;99.90;;;;;;5053998;28;20247;-63
2022/04/10 00:57:34;;;;;;;1.90;1.47;;;4.60;99.90;;;;;;5054047;28;20231;-65
2022/04/10 00:59:59;;;;;;;4.27;1.70;;;4.60;99.90;;;;;;5053276;28;20636;-65
2022/04/10 01:02:25;;;;;;;1.30;1.20;;;4.70;99.90;;;;;;5053306;28;20171;-64
2022/04/10 01:04:51;;;;;;;3.97;1.50;;;4.70;99.90;;;;;;5053584;28;20226;-64
2022/04/10 01:07:18;;;;;;;1.57;1.47;;;4.70;99.90;;;;;;5054104;28;20256;-65
2022/04/10 01:09:46;;;;;;;1.40;1.30;;;4.70;99.90;;;;;;5054589;28;20256;-65
2022/04/10 01:12:12;;;;;;;1.67;1.50;;;4.70;99.90;;;;;;5056987;28;20198;-65
2022/04/10 01:14:39;;;;;;;2.50;1.77;;;4.70;99.90;;;;;;5057262;28;20165;-66
2022/04/10 01:17:09;;;;;;;1.77;1.50;;;4.80;99.90;;;;;;5039569;28;20180;-64
2022/04/10 01:19:38;;;;;;;2.33;1.60;;;4.80;99.90;;;;;;5057290;28;20189;-64
2022/04/10 01:22:07;;;;;;;3.30;1.90;;;4.90;99.90;;;;;;5057317;28;20172;-64
2022/04/10 01:24:37;;;;;;;3.03;1.50;;;4.80;99.90;;;;;;5057526;28;20254;-64
2022/04/10 01:27:04;;;;;;;1.37;1.23;;;4.90;99.90;;;;;;5059697;28;20160;-64
2022/04/10 01:29:30;;;;;;;1.83;1.40;;;4.90;99.90;;;;;;5060277;28;20172;-65
2022/04/10 01:31:56;;;;;;;3.73;1.53;;;4.90;99.90;;;;;;5061032;28;20169;-64
2022/04/10 01:34:23;;;;;;;1.73;1.37;;;4.90;99.90;;;;;;5061321;28;20263;-64
2022/04/10 01:36:49;;;;;;;5.33;1.63;;;4.90;99.90;;;;;;5056863;28;20235;-63
2022/04/10 01:39:15;;;;;;;2.63;1.30;;;4.90;99.90;;;;;;5057120;28;20197;-64
2022/04/10 01:41:42;;;;;;;2.43;1.40;;;4.90;99.90;;;;;;5057031;28;20164;-65
2022/04/10 01:44:09;;;;;;;2.47;1.30;;;4.90;99.90;;;;;;5057780;28;20165;-65
2022/04/10 01:46:36;;;;;;;3.30;1.43;;;5.00;99.90;;;;;;5056972;28;20231;-64
2022/04/10 01:49:03;;;;;;;2.13;1.47;;;5.00;99.90;;;;;;5057816;28;20170;-63
2022/04/10 01:51:29;;;;;;;7.53;2.00;;;5.00;99.90;;;;;;5057986;28;20185;-65
2022/04/10 01:53:55;;;;;;;1.93;1.40;;;5.00;99.90;;;;;;5057240;28;20603;-64
2022/04/10 01:56:21;;;;;;;3.77;1.50;;;5.00;99.90;;;;;;5057242;28;20200;-65
2022/04/10 01:58:48;;;;;;;3.50;1.73;;;5.00;99.90;;;;;;5056586;28;20623;-63
2022/04/10 02:01:15;;;;;;;3.70;1.50;;;4.90;99.90;;;;;;5057240;28;20289;-65
2022/04/10 02:03:41;;;;;;;2.83;1.60;;;4.90;99.90;;;;;;5056690;28;20270;-64
2022/04/10 02:06:09;;;;;;;2.33;1.60;;;5.00;99.90;;;;;;5057429;28;20628;-66
2022/04/10 02:08:36;;;;;;;3.53;1.60;;;5.00;99.90;;;;;;5057223;28;20184;-64
2022/04/10 02:11:10;;;;;;;2.20;1.70;;;5.00;99.90;;;;;;5057177;28;20167;-64
2022/04/10 02:13:35;;;;;;;2.27;1.60;;;4.90;99.90;;;;;;5056972;28;20230;-64
2022/04/10 02:16:01;;;;;;;2.60;1.57;;;4.90;99.90;;;;;;5056545;28;20249;-64
2022/04/10 02:18:26;;;;;;;3.67;1.83;;;4.90;99.90;;;;;;5056743;28;20202;-64
2022/04/10 02:20:52;;;;;;;2.13;1.63;;;4.90;99.90;;;;;;5056628;28;20157;-64
2022/04/10 02:23:17;;;;;;;1.83;1.43;;;4.90;99.90;;;;;;5055048;28;20160;-64
2022/04/10 02:25:43;;;;;;;3.63;1.50;;;4.80;99.90;;;;;;5038391;28;20522;-66
2022/04/10 02:28:08;;;;;;;1.73;1.63;;;4.80;99.90;;;;;;5056547;28;20172;-64
2022/04/10 02:30:34;;;;;;;1.60;1.50;;;4.80;99.90;;;;;;5056876;28;20607;-64
2022/04/10 02:33:00;;;;;;;4.10;1.73;;;4.80;99.90;;;;;;5057974;28;20240;-65
2022/04/10 02:35:25;;;;;;;2.17;1.50;;;4.70;99.90;;;;;;5057368;28;20178;-63
2022/04/10 02:37:51;;;;;;;6.43;1.77;;;4.70;99.90;;;;;;5057789;28;20235;-65
2022/04/10 02:40:18;;;;;;;2.77;1.40;;;4.70;99.90;;;;;;5053538;28;20193;-63
2022/04/10 02:42:44;;;;;;;3.27;1.57;;;4.60;99.90;;;;;;5057207;28;20485;-64
2022/04/10 02:45:11;;;;;;;2.63;1.60;;;4.60;99.90;;;;;;5055500;28;20240;-63
2022/04/10 02:47:37;;;;;;;7.73;1.70;;;4.60;99.90;;;;;;5056038;28;20685;-65
2022/04/10 02:50:04;;;;;;;1.90;1.40;;;4.70;99.90;;;;;;5038073;28;20263;-63
2022/04/10 02:52:29;;;;;;;1.97;1.30;;;4.70;99.90;;;;;;5056377;28;20454;-65
2022/04/10 02:54:55;;;;;;;2.13;1.40;;;4.70;99.90;;;;;;5056523;28;20211;-65
2022/04/10 02:57:21;;;;;;;6.43;1.80;;;4.60;99.90;;;;;;5059316;28;20245;-66
2022/04/10 02:59:46;;;;;;;1.40;1.30;;;4.70;99.90;;;;;;5060339;28;20166;-64
2022/04/10 03:02:12;;;;;;;4.33;1.80;;;4.70;99.90;;;;;;5059044;28;20355;-65
2022/04/10 03:04:37;;;;;;;3.63;1.57;;;4.60;99.90;;;;;;5060086;28;20166;-64
2022/04/10 03:07:03;;;;;;;2.13;1.50;;;4.70;99.90;;;;;;5058304;28;20176;-65
2022/04/10 03:09:29;;;;;;;2.33;1.30;;;4.70;99.90;;;;;;5057569;28;20541;-64
2022/04/10 03:11:55;;;;;;;2.67;1.50;;;4.70;99.90;;;;;;5056703;28;20636;-64
2022/04/10 03:14:20;;;;;;;2.27;1.70;;;4.70;99.90;;;;;;5056544;28;20213;-65
2022/04/10 03:16:46;;;;;;;4.20;1.50;;;4.60;99.90;;;;;;5055556;28;20599;-64
2022/04/10 03:19:11;;;;;;;5.63;1.40;;;4.60;99.90;;;;;;5056727;28;20218;-64
2022/04/10 03:21:37;;;;;;;2.53;1.40;;;4.70;99.90;;;;;;5056729;28;20608;-64
2022/04/10 03:24:03;;;;;;;3.63;1.93;;;4.60;99.90;;;;;;5056270;28;20178;-64
2022/04/10 03:26:29;;;;;;;4.27;1.70;;;4.60;99.90;;;;;;5056160;28;20169;-64
2022/04/10 03:28:55;;;;;;;3.13;1.53;;;4.60;99.90;;;;;;5059816;28;20187;-63
2022/04/10 03:31:22;;;;;;;4.97;1.63;;;4.60;99.90;;;;;;5075795;28;20215;-63
2022/04/10 03:33:48;;;;;;;2.50;1.47;;;4.60;99.90;;;;;;5076145;28;20557;-63
2022/04/10 03:36:14;;;;;;;1.83;1.40;;;4.70;99.90;;;;;;5076261;28;20245;-64
2022/04/10 03:38:39;;;;;;;2.23;1.30;;;4.70;99.90;;;;;;5076206;28;20279;-65
2022/04/10 03:41:05;;;;;;;2.80;1.73;;;4.70;99.90;;;;;;5074883;28;20166;-65
2022/04/10 03:43:32;;;;;;;3.90;1.50;;;4.70;99.90;;;;;;5074942;28;20548;-63
2022/04/10 03:45:58;;;;;;;4.03;1.70;;;4.70;99.90;;;;;;5075963;28;20159;-64
2022/04/10 03:48:24;;;;;;;4.47;1.70;;;4.70;99.90;;;;;;5076081;28;20161;-63
2022/04/10 03:50:49;;;;;;;3.73;1.50;;;4.60;99.90;;;;;;5075238;28;20164;-65
2022/04/10 03:53:15;;;;;;;4.47;1.50;;;4.80;99.90;;;;;;5076078;28;20192;-64
2022/04/10 03:55:41;;;;;;;4.30;1.73;;;4.70;99.90;;;;;;5075885;28;20171;-64
2022/04/10 03:58:07;;;;;;;3.10;1.47;;;4.70;99.90;;;;;;5052005;28;20559;-65
2022/04/10 04:00:32;;;;;;;3.27;1.50;;;4.70;99.90;;;;;;5058430;28;20169;-63
2022/04/10 04:02:58;;;;;;;2.43;1.40;;;4.60;99.90;;;;;;5055278;28;20199;-64
2022/04/10 04:05:24;;;;;;;5.73;1.47;;;4.60;99.90;;;;;;5055361;28;20507;-64
2022/04/10 04:07:49;;;;;;;2.93;1.63;;;4.60;99.90;;;;;;5054413;28;20166;-64
2022/04/10 04:10:15;;;;;;;2.33;1.50;;;4.60;99.90;;;;;;5054025;28;20165;-65
2022/04/10 04:12:41;;;;;;;2.33;1.60;;;4.60;99.90;;;;;;5053664;28;20165;-64
2022/04/10 04:15:07;;;;;;;3.90;1.50;;;4.70;99.90;;;;;;5053742;28;20182;-63
2022/04/10 04:17:33;;;;;;;5.63;1.50;;;4.60;99.90;;;;;;5053840;28;20164;-64
2022/04/10 04:19:58;;;;;;;2.17;1.70;;;4.60;99.90;;;;;;5054262;28;20174;-65
2022/04/10 04:22:24;;;;;;;6.10;1.57;;;4.70;99.90;;;;;;5053826;28;20227;-64
2022/04/10 04:24:50;;;;;;;2.77;1.43;;;4.70;99.90;;;;;;5053565;28;20588;-65
2022/04/10 04:27:15;;;;;;;6.37;1.87;;;4.70;99.90;;;;;;5053404;28;20198;-64
2022/04/10 04:29:41;;;;;;;3.77;1.80;;;4.70;99.90;;;;;;5053278;28;20166;-64
2022/04/10 04:32:07;;;;;;;2.47;1.90;;;4.70;99.90;;;;;;5035862;28;20182;-64
2022/04/10 04:34:33;;;;;;;7.00;1.60;;;4.70;99.90;;;;;;5053502;28;20192;-64
2022/04/10 04:36:58;;;;;;;3.83;1.70;;;4.70;99.90;;;;;;5053747;28;20658;-64
2022/04/10 04:39:24;;;;;;;3.20;1.70;;;4.70;99.90;;;;;;5053678;28;20287;-64
2022/04/10 04:41:50;;;;;;;4.30;1.77;;;4.70;99.90;;;;;;5053312;28;20226;-64
2022/04/10 04:44:16;;;;;;;2.87;2.10;;;4.70;99.90;;;;;;5052950;28;20270;-64
2022/04/10 04:46:42;;;;;;;3.53;1.70;;;4.80;99.90;;;;;;5053269;28;20176;-64
2022/04/10 04:49:08;;;;;;;4.13;1.60;;;4.70;99.90;;;;;;5053605;28;20163;-63
2022/04/10 04:51:36;;;;;;;3.10;1.73;;;4.70;99.90;;;;;;5053173;28;20184;-66
2022/04/10 04:54:03;;;;;;;4.03;1.87;;;4.70;99.90;;;;;;5053514;28;20170;-64
2022/04/10 04:56:29;;;;;;;2.83;1.67;;;4.80;99.90;;;;;;5052996;28;20551;-64
2022/04/10 04:58:55;;;;;;;2.83;1.77;;;4.70;99.90;;;;;;5052946;28;20230;-65
2022/04/10 05:01:20;;;;;;;2.33;2.07;;;4.80;99.90;;;;;;5053795;28;20545;-64
2022/04/10 05:03:46;;;;;;;5.23;1.87;;;4.80;99.90;;;;;;5053570;28;20161;-63
2022/04/10 05:06:12;;;;;;;5.70;1.90;;;4.80;99.90;;;;;;5053489;28;20513;-64
2022/04/10 05:08:39;;;;;;;4.57;1.80;;;4.80;99.90;;;;;;5052802;28;20165;-63
2022/04/10 05:11:06;;;;;;;4.97;1.97;;;4.80;99.90;;;;;;5053072;28;20152;-63
2022/04/10 05:13:32;;;;;;;6.60;1.67;;;4.80;99.90;;;;;;5053114;28;20171;-63
2022/04/10 05:15:57;;;;;;;6.10;1.93;;;4.90;99.90;;;;;;5053209;28;20476;-64
2022/04/10 05:18:23;;;;;;;2.70;1.80;;;5.00;99.90;;;;;;5053480;28;20206;-64
2022/04/10 05:20:49;;;;;;;2.77;1.50;;;4.90;99.90;;;;;;5053577;28;20599;-64
2022/04/10 05:23:16;;;;;;;4.40;2.00;;;4.80;99.90;;;;;;5053651;28;20160;-63
2022/04/10 05:25:42;;;;;;;5.47;2.20;;;4.90;99.90;;;;;;5053668;28;20164;-63
2022/04/10 05:28:07;;;;;;;4.93;1.47;;;4.90;99.90;;;;;;5053472;28;20164;-64
2022/04/10 05:30:33;;;;;;;3.87;1.97;;;4.90;99.90;;;;;;5053172;28;20558;-63
2022/04/10 05:32:59;;;;;;;2.37;1.70;;;4.90;99.90;;;;;;5054410;28;20584;-63
2022/04/10 05:35:24;;;;;;;4.47;1.70;;;4.90;99.90;;;;;;5055454;28;20214;-64
2022/04/10 05:37:50;;;;;;;4.37;1.80;;;5.00;99.90;;;;;;5056656;28;20318;-64
2022/04/10 05:40:16;;;;;;;2.67;1.83;;;4.90;99.90;;;;;;5055636;28;20196;-63
2022/04/10 05:42:45;;;;;;;2.80;1.63;;;4.90;99.90;;;;;;5054970;28;20158;-64
2022/04/10 05:45:11;;;;;;;7.53;1.77;;;5.00;99.90;;;;;;5052644;28;20211;-63
2022/04/10 05:47:39;;;;;;;2.50;1.50;;;5.00;99.90;;;;;;5052726;28;20304;-65
2022/04/10 05:50:05;;;;;;;2.43;1.80;;;5.00;99.90;;;;;;5053130;28;20243;-65
2022/04/10 05:52:31;;;;;;;2.67;1.50;;;5.00;99.90;;;;;;5055354;28;20156;-64
2022/04/10 05:54:58;;;;;;;4.80;1.93;;;5.10;99.90;;;;;;5060041;28;20185;-63
2022/04/10 05:57:24;;;;;;;2.93;1.60;;;5.10;99.90;;;;;;5057228;28;20175;-64
2022/04/10 05:59:50;;;;;;;3.80;1.63;;;5.10;99.90;;;;;;5056605;28;20253;-66
2022/04/10 06:02:15;;;;;;;6.30;1.90;;;5.20;99.90;;;;;;5057134;28;20160;-64
2022/04/10 06:04:41;;;;;;;3.40;1.70;;;5.30;99.90;;;;;;5056918;28;20237;-64
2022/04/10 06:07:07;;;;;;;1.90;1.50;;;5.20;99.90;;;;;;5038794;28;20677;-64
2022/04/10 06:09:33;;;;;;;4.87;1.90;;;5.40;99.90;;;;;;5056266;28;20202;-63
2022/04/10 06:11:58;;;;;;;1.63;1.50;;;5.40;99.90;;;;;;5057765;28;20169;-64
2022/04/10 06:14:24;;;;;;;2.87;1.60;;;5.50;99.90;;;;;;5056821;28;20215;-63
2022/04/10 06:16:50;;;;;;;4.20;2.10;;;5.40;99.90;;;;;;5056088;28;20192;-63
2022/04/10 06:19:16;;;;;;;2.23;1.60;;;5.50;99.90;;;;;;5056893;28;20245;-64
2022/04/10 06:21:42;;;;;;;3.60;1.90;;;5.60;99.90;;;;;;5056953;28;20162;-65
2022/04/10 06:24:08;;;;;;;4.53;1.80;;;5.60;99.90;;;;;;5056493;28;20502;-64
2022/04/10 06:26:33;;;;;;;4.90;1.70;;;5.60;99.90;;;;;;5055612;28;20169;-63
2022/04/10 06:28:59;;;;;;;7.70;1.87;;;5.60;99.90;;;;;;5055606;28;20171;-65
2022/04/10 06:31:24;;;;;;;3.70;1.87;;;5.60;99.90;;;;;;5055550;28;20519;-64
2022/04/10 06:33:50;;;;;;;4.67;1.80;;;5.60;99.90;;;;;;5055898;28;20171;-64
2022/04/10 06:36:16;;;;;;;5.33;2.00;;;5.60;99.90;;;;;;5055794;28;20521;-64
2022/04/10 06:38:42;;;;;;;3.27;1.43;;;5.70;99.90;;;;;;5054939;28;20228;-63
2022/04/10 06:41:07;;;;;;;5.57;1.40;;;5.80;99.90;;;;;;5055187;28;20261;-65
2022/04/10 06:43:33;;;;;;;3.17;1.30;;;5.80;99.90;;;;;;5055536;28;20218;-64
2022/04/10 06:45:59;;;;;;;3.43;1.70;;;5.80;99.90;;;;;;5055409;28;20220;-63
2022/04/10 06:48:24;;;;;;;6.03;1.90;;;5.70;99.90;;;;;;5056071;28;20228;-63
2022/04/10 06:50:50;;;;;;;2.60;1.73;;;5.80;99.90;;;;;;5056468;28;20217;-64
2022/04/10 06:53:15;;;;;;;3.87;1.67;;;5.80;99.90;;;;;;5058755;28;20218;-64
2022/04/10 06:55:41;;;;;;;3.50;2.00;;;5.80;99.90;;;;;;5060122;28;20163;-63
2022/04/10 06:58:07;;;;;;;3.20;1.73;;;5.90;99.90;;;;;;5058436;28;20209;-64
2022/04/10 07:00:32;;;;;;;3.40;2.20;;;6.00;99.90;;;;;;5057185;28;20224;-64
2022/04/10 07:03:01;;;;;;;2.07;1.50;;;5.90;99.90;;;;;;5055299;28;20600;-65
2022/04/10 07:05:27;;;;;;;5.83;2.10;;;6.00;99.90;;;;;;5059785;28;20183;-64
2022/04/10 07:07:53;;;;;;;3.20;1.87;;;6.10;99.90;;;;;;5074411;28;20156;-64
2022/04/10 07:10:19;;;;;;;3.80;1.33;;;6.00;99.90;;;;;;5074824;28;20172;-63
2022/04/10 07:12:45;;;;;;;1.87;1.27;;;6.10;99.90;;;;;;5074955;28;20161;-64
2022/04/10 07:15:11;;;;;;;5.97;1.90;;;6.10;99.90;;;;;;5074771;28;20162;-64
2022/04/10 07:17:36;;;;;;;7.30;2.20;;;6.10;99.90;;;;;;5074923;28;20173;-63
2022/04/10 07:20:02;;;;;;;5.67;1.90;;;6.00;99.90;;;;;;5074592;28;20169;-65
2022/04/10 07:25:12;;;;;;;6.43;2.10;;;5.80;99.90;;;;;;5075088;28;20186;-64
2022/04/10 07:27:38;;;;;;;3.87;1.97;;;6.00;99.90;;;;;;5075824;28;20164;-64
2022/04/10 07:30:04;;;;;;;2.70;1.50;;;6.10;99.90;;;;;;5075758;28;20493;-64
2022/04/10 07:32:30;;;;;;;2.20;1.57;;;6.20;99.90;;;;;;5075442;28;20162;-63
2022/04/10 07:34:55;;;;;;;1.37;1.23;;;6.20;99.90;;;;;;5075473;28;20162;-64
2022/04/10 07:37:21;;;;;;;2.40;1.70;;;6.20;99.90;;;;;;5074254;28;20301;-64
2022/04/10 07:39:47;;;;;;;3.70;1.80;;;6.30;99.90;;;;;;5074792;28;20266;-66
2022/04/10 07:42:12;;;;;;;6.23;1.80;;;6.30;99.90;;;;;;5074265;28;20238;-64
2022/04/10 07:44:38;;;;;;;4.07;1.80;;;6.40;99.90;;;;;;5074311;28;20160;-63
2022/04/10 07:49:48;;;;;;;4.10;2.00;;;6.40;99.90;;;;;;5073935;28;20260;-63
2022/04/10 07:52:13;;;;;;;3.27;1.70;;;6.50;99.90;;;;;;5056687;28;20228;-64
2022/04/10 07:54:39;;;;;;;2.77;2.10;;;6.50;99.90;;;;;;5075389;28;20156;-64
2022/04/10 07:57:05;;;;;;;2.87;1.60;;;6.40;99.90;;;;;;5057538;28;20523;-65
2022/04/10 07:59:31;;;;;;;4.67;1.73;;;6.30;99.90;;;;;;5075265;28;20218;-65
2022/04/10 08:01:57;;;;;;;1.60;1.50;;;6.40;99.90;;;;;;5075680;28;20228;-66
2022/04/10 08:04:22;;;;;;;3.60;2.17;;;6.30;99.90;;;;;;5074899;28;20235;-64
2022/04/10 08:06:48;;;;;;;4.37;2.30;;;6.30;99.90;;;;;;5075907;28;20228;-63
2022/04/10 08:09:13;;;;;;;6.43;2.03;;;6.10;99.90;;;;;;5076302;28;20174;-64
2022/04/10 08:11:39;;;;;;;5.50;2.57;;;6.10;99.90;;;;;;5076698;28;20593;-63
2022/04/10 08:14:05;;;;;;;7.83;2.50;;;6.20;99.90;;;;;;5076259;28;20163;-64
2022/04/10 08:16:31;;;;;;;4.13;2.70;;;6.10;99.90;;;;;;5076715;28;20168;-63
2022/04/10 08:18:56;;;;;;;4.43;2.93;;;6.10;99.90;;;;;;5077858;28;20286;-65
2022/04/10 08:21:22;;;;;;;5.33;2.20;;;6.10;99.90;;;;;;5076920;28;20251;-66
2022/04/10 08:23:48;;;;;;;4.50;1.83;;;6.00;99.90;;;;;;5056040;28;20191;-64
2022/04/10 08:26:13;;;;;;;7.77;2.63;;;5.90;99.90;;;;;;5073393;28;20163;-64
2022/04/10 08:28:39;;;;;;;2.93;2.10;;;5.90;99.90;;;;;;5073310;28;20250;-63
2022/04/10 08:31:05;;;;;;;6.40;2.10;;;6.10;99.90;;;;;;5072877;28;20151;-65
2022/04/10 08:33:30;;;;;;;5.77;2.87;;;6.20;99.90;;;;;;5073366;28;20193;-64
2022/04/10 08:35:56;;;;;;;3.97;2.17;;;6.20;99.90;;;;;;5073232;28;20271;-64
2022/04/10 08:38:22;;;;;;;6.00;2.07;;;6.20;99.90;;;;;;5073101;28;20577;-65
2022/04/10 08:40:57;;;;;;;5.63;2.80;;;6.30;99.90;;;;;;5075233;28;20214;-62
2022/04/10 08:43:23;;;;;;;5.37;2.43;;;6.10;99.90;;;;;;5074408;28;20169;-64
2022/04/10 08:45:50;;;;;;;6.83;2.43;;;6.20;99.90;;;;;;5075532;28;20159;-64
2022/04/10 08:48:16;;;;;;;5.73;2.20;;;6.10;99.90;;;;;;5074529;28;20506;-63
2022/04/10 08:50:43;;;;;;;6.40;2.10;;;6.10;99.90;;;;;;5073283;28;20156;-64
2022/04/10 08:53:09;;;;;;;7.47;2.73;;;6.00;99.90;;;;;;5055498;28;20178;-64
2022/04/10 08:55:35;;;;;;;5.00;2.63;;;5.90;99.90;;;;;;5073036;28;20156;-64
2022/04/10 08:58:04;;;;;;;4.80;2.13;;;6.00;99.90;;;;;;5072773;28;20232;-63
2022/04/10 09:00:30;;;;;;;9.43;1.80;;;6.10;99.90;;;;;;5073294;28;20455;-64
2022/04/10 09:02:55;;;;;;;7.23;2.43;;;6.20;99.90;;;;;;5072806;28;20170;-64
2022/04/10 09:05:24;;;;;;;4.23;1.53;;;6.20;99.90;;;;;;5072947;28;20165;-65
2022/04/10 09:08:16;;;;;;;4.50;2.23;;;6.10;99.90;;;;;;5074037;28;20172;-63
2022/04/10 09:11:08;;;;;;;5.70;2.20;;;6.30;99.90;;;;;;5074640;28;20195;-63
2022/04/10 09:13:37;;;;;;;5.57;2.23;;;6.50;99.90;;;;;;5075061;28;20550;-63
2022/04/10 09:16:13;;;;;;;6.13;2.20;;;6.80;99.90;;;;;;5073806;28;20170;-63
2022/04/10 09:18:49;;;;;;;3.97;1.93;;;7.10;99.90;;;;;;5074531;28;20202;-65
2022/04/10 09:21:16;;;;;;;4.93;1.40;;;7.20;99.90;;;;;;5075029;28;20520;-65
2022/04/10 09:23:46;;;;;;;5.47;2.00;;;7.20;99.90;;;;;;5075200;28;20475;-65
2022/04/10 09:26:13;;;;;;;3.37;1.63;;;7.50;99.90;;;;;;5076595;28;20152;-65
2022/04/10 09:28:46;;;;;;;2.20;1.53;;;7.70;99.90;;;;;;5075292;28;20168;-65
2022/04/10 09:31:27;;;;;;;4.30;1.33;;;7.60;99.90;;;;;;5077379;28;20171;-63
2022/04/10 09:33:54;;;;;;;9.30;2.10;;;8.20;99.90;;;;;;5080931;28;20605;-64
2022/04/10 09:36:43;;;;;;;5.33;1.87;;;8.00;99.90;;;;;;5080011;28;20194;-64
2022/04/10 09:39:44;;;;;;;1.87;1.43;;;7.80;99.90;;;;;;5077606;28;20211;-64
2022/04/10 09:42:10;;;;;;;4.60;2.10;;;7.80;99.90;;;;;;5062888;28;20665;-63
2022/04/10 09:44:38;;;;;;;1.87;1.50;;;7.50;99.90;;;;;;5077576;28;20186;-64
2022/04/10 09:47:08;;;;;;;5.23;2.00;;;7.50;99.90;;;;;;5077258;28;20171;-65
2022/04/10 09:49:39;;;;;;;2.73;1.70;;;7.20;99.90;;;;;;5077224;28;20164;-65
2022/04/10 09:52:16;;;;;;;3.27;1.87;;;7.10;99.90;;;;;;5077344;28;20174;-63
2022/04/10 09:54:43;;;;;;;8.53;1.70;;;6.90;99.90;;;;;;5077233;28;20185;-65
2022/04/10 09:57:22;;;;;;;6.33;1.33;;;6.90;99.90;;;;;;5076932;28;20172;-64
2022/04/10 09:59:51;;;;;;;3.73;1.93;;;6.70;99.90;;;;;;5076610;28;20197;-64
2022/04/10 10:02:18;;;;;;;2.57;1.90;;;6.70;99.90;;;;;;5075138;28;20530;-64
2022/04/10 10:04:46;;;;;;;5.90;1.57;;;6.80;99.90;;;;;;5076153;28;20597;-64
2022/04/10 10:07:20;;;;;;;6.73;1.87;;;7.00;99.90;;;;;;5076824;28;20286;-65
2022/04/10 10:09:48;;;;;;;3.47;1.77;;;6.80;99.90;;;;;;5076094;28;20255;-64
2022/04/10 10:12:15;;;;;;;4.00;2.20;;;6.60;99.90;;;;;;5076005;28;20171;-63
2022/04/10 10:14:41;;;;;;;5.00;2.00;;;6.40;99.90;;;;;;5076339;28;20168;-64
2022/04/10 10:17:08;;;;;;;3.93;1.50;;;6.20;99.90;;;;;;5075600;28;20158;-64
2022/04/10 10:19:38;;;;;;;4.23;1.83;;;6.30;99.90;;;;;;5075904;28;20254;-64
2022/04/10 10:22:06;;;;;;;6.23;1.63;;;6.50;99.90;;;;;;5074426;28;20173;-65
2022/04/10 10:24:45;;;;;;;3.73;1.47;;;6.70;99.90;;;;;;5076012;28;20171;-63
2022/04/10 10:27:41;;;;;;;4.37;2.00;;;6.80;99.90;;;;;;5076322;28;20155;-63
2022/04/10 10:30:22;;;;;;;5.27;2.17;;;7.00;99.90;;;;;;5075967;28;20174;-63
2022/04/10 10:32:52;;;;;;;4.17;2.17;;;7.30;99.90;;;;;;5071462;28;20169;-64
2022/04/10 10:35:40;;;;;;;6.63;2.40;;;7.70;99.90;;;;;;5056125;28;20536;-64
2022/04/10 10:38:49;;;;;;;5.83;2.00;;;7.80;99.90;;;;;;5056387;28;20258;-64
2022/04/10 10:41:18;;;;;;;3.43;2.10;;;8.30;99.90;;;;;;4955287;29;20196;-64
2022/04/10 10:43:44;;;;;;;3.03;1.90;;;8.60;99.90;;;;;;4955221;28;20188;-63
2022/04/10 10:46:20;;;;;;;2.73;1.77;;;9.30;99.90;;;;;;4954913;29;20229;-64
2022/04/10 10:48:46;;;;;;;3.10;1.90;;;9.00;99.90;;;;;;4955672;29;20198;-65
2022/04/10 10:51:11;;;;;;;7.07;1.90;;;8.70;99.90;;;;;;4957375;29;20185;-63
2022/04/10 10:53:45;;;;;;;6.93;1.83;;;8.80;99.90;;;;;;4957273;29;20190;-64
2022/04/10 10:56:30;;;;;;;3.57;2.03;;;8.80;99.90;;;;;;4957403;29;20276;-64
2022/04/10 10:59:24;;;;;;;3.33;2.47;;;8.50;99.90;;;;;;4957109;29;20672;-63
2022/04/10 11:01:55;;;;;;;4.47;1.80;;;8.70;99.90;;;;;;4956864;29;20198;-63
2022/04/10 11:04:21;;;;;;;4.73;2.00;;;9.30;99.90;;;;;;4957304;29;20190;-63
2022/04/10 11:06:48;;;;;;;5.27;2.50;;;9.70;99.90;;;;;;4958914;29;20519;-64
2022/04/10 11:09:29;;;;;;;7.63;2.00;;;9.40;99.90;;;;;;4957855;29;20191;-63
2022/04/10 11:11:58;;;;;;;4.73;1.93;;;8.70;99.90;;;;;;4955750;29;20172;-65
2022/04/10 11:14:40;;;;;;;2.90;1.70;;;7.40;99.90;;;;;;4976682;28;20191;-64
2022/04/10 11:17:13;;;;;;;2.27;1.50;;;7.00;99.90;;;;;;5055205;28;20615;-64
2022/04/10 11:19:39;;;;;;;1.80;1.50;;;7.00;99.90;;;;;;5055006;28;20205;-62
2022/04/10 11:22:07;;;;;;;2.90;1.70;;;7.60;99.90;;;;;;5055199;28;20157;-63
2022/04/10 11:24:35;;;;;;;13.17;5.53;;;8.20;99.90;;;;;;5054880;28;20243;-64
2022/04/10 11:27:04;;;;;;;5.60;2.33;;;8.30;99.90;;;;;;5054786;28;20171;-63
2022/04/10 11:29:31;;;;;;;3.20;2.07;;;8.70;99.90;;;;;;5054186;28;20167;-64
2022/04/10 11:32:03;;;;;;;3.90;1.70;;;8.80;99.90;;;;;;5037257;28;20331;-63
2022/04/10 11:34:29;;;;;;;1.47;1.30;;;8.30;99.90;;;;;;5054646;28;20161;-63
2022/04/10 11:36:58;;;;;;;2.67;1.50;;;7.90;99.90;;;;;;5042302;28;20285;-64
2022/04/10 11:39:36;;;;;;;3.33;2.10;;;8.10;99.90;;;;;;5074905;28;20202;-64
2022/04/10 11:42:04;;;;;;;5.60;2.93;;;8.40;99.90;;;;;;5075053;28;20480;-64
2022/04/10 11:44:32;;;;;;;7.90;4.53;;;8.70;99.90;;;;;;5074941;28;20162;-64
2022/04/10 11:47:02;;;;;;;4.07;2.60;;;9.10;99.90;;;;;;5074545;28;20174;-65
2022/04/10 11:49:28;;;;;;;6.10;2.07;;;9.40;99.90;;;;;;5074425;28;20506;-64
2022/04/10 11:51:54;;;;;;;7.47;2.10;;;9.70;99.90;;;;;;5074337;28;20253;-62
2022/04/10 11:54:38;;;;;;;3.33;1.60;;;9.60;99.90;;;;;;5073885;28;20160;-64
2022/04/10 11:57:05;;;;;;;2.77;1.50;;;9.40;99.90;;;;;;5073348;28;20179;-65
2022/04/10 11:59:43;;;;;;;5.60;1.20;;;9.40;99.90;;;;;;5074148;28;20199;-64
2022/04/10 12:02:10;;;;;;;2.90;1.10;;;9.40;99.90;;;;;;5074629;28;20175;-64
2022/04/10 12:04:37;;;;;;;2.87;1.23;;;9.20;99.90;;;;;;5073647;28;20170;-64
2022/04/10 12:07:17;;;;;;;6.00;1.50;;;8.70;99.90;;;;;;5074810;28;20563;-64
2022/04/10 12:09:44;;;;;;;2.60;1.57;;;8.30;99.90;;;;;;5074319;28;20171;-64
2022/04/10 12:12:11;;;;;;;3.33;1.37;;;8.10;99.90;;;;;;5076024;28;20190;-65
2022/04/10 12:14:37;;;;;;;7.20;1.77;;;8.00;99.90;;;;;;5077284;28;20507;-64
2022/04/10 12:17:08;;;;;;;1.33;1.23;;;7.90;99.90;;;;;;5076611;28;20245;-63
2022/04/10 12:19:35;;;;;;;2.97;1.73;;;8.40;99.90;;;;;;5077383;28;20206;-63
2022/04/10 12:22:05;;;;;;;1.87;1.17;;;8.90;99.90;;;;;;5076820;28;20225;-65
2022/04/10 12:24:31;;;;;;;4.33;1.60;;;9.00;99.90;;;;;;5074493;28;20160;-64
2022/04/10 12:26:58;;;;;;;4.47;1.43;;;9.30;99.90;;;;;;5073391;28;20178;-65
2022/04/10 12:29:27;;;;;;;4.27;1.30;;;9.40;98.90;;;;;;5072564;28;20591;-64
2022/04/10 12:31:54;;;;;;;2.90;1.40;;;9.90;98.90;;;;;;5074478;28;20624;-64
2022/04/10 12:34:21;;;;;;;5.03;1.70;;;10.00;97.00;;;;;;5073764;28;20167;-64
2022/04/10 12:36:52;;;;;;;2.47;1.53;;;10.00;95.80;;;;;;5070141;28;20362;-65
2022/04/10 12:39:23;;;;;;;4.07;1.30;;;10.00;94.60;;;;;;5052591;28;20215;-64
2022/04/10 12:42:01;;;;;;;3.57;1.30;;;9.90;95.50;;;;;;5053569;28;20160;-63
2022/04/10 12:44:26;;;;;;;8.87;2.10;;;9.30;96.90;;;;;;5053140;28;20483;-64
2022/04/10 12:46:52;;;;;;;2.13;1.50;;;9.80;96.70;;;;;;5053405;28;20172;-64
2022/04/10 12:49:18;;;;;;;5.27;2.17;;;9.90;96.50;;;;;;5053205;28;20176;-63
2022/04/10 12:51:53;;;;;;;5.43;2.10;;;9.70;95.30;;;;;;5053698;28;20198;-64
2022/04/10 12:54:32;;;;;;;3.80;1.63;;;9.80;96.30;;;;;;5053416;28;20206;-65
2022/04/10 12:56:58;;;;;;;3.43;1.80;;;9.60;95.70;;;;;;5053047;28;20175;-63
2022/04/10 12:59:44;;;;;;;3.80;1.80;;;9.80;95.30;;;;;;5052762;28;20196;-63
2022/04/10 13:02:35;;;;;;;3.27;1.70;;;10.30;93.30;;;;;;5053431;28;20164;-64
2022/04/10 13:05:03;;;;;;;3.13;1.60;;;10.70;91.90;;;;;;5052654;28;20184;-64
2022/04/10 13:07:30;;;;;;;3.30;1.57;;;10.90;92.50;;;;;;5056367;28;20185;-65